Time;durP1;ratioP1;P1;durP2;ratioP2;P2;SDS_P1;SDS_P2;PMS_P1;PMS_P2;Temp;Humidity;BMP_temperature;BMP_pressure;BME280_temperature;BME280_humidity;BME280_pressure;Samples;Min_cycle;Max_cycle;Signal;HPM_P1;HPM_P2
2022/11/11 00:01:55;;;;;;;24.23;8.70;;;5.30;25.20;;;;;;5053527;28;20463;-82
2022/11/11 00:04:26;;;;;;;29.60;9.93;;;5.40;22.70;;;;;;5048827;28;20294;-82
2022/11/11 00:06:52;;;;;;;20.73;9.70;;;5.30;22.40;;;;;;5033518;28;20794;-82
2022/11/11 00:09:25;;;;;;;19.65;8.80;;;5.30;21.80;;;;;;5049421;28;20464;-82
2022/11/11 00:11:55;;;;;;;25.67;9.30;;;5.30;19.30;;;;;;5040778;28;20194;-83
2022/11/11 00:14:55;;;;;;;21.40;10.33;;;5.30;18.30;;;;;;5048988;28;20832;-82
2022/11/11 00:30:01;;;;;;;27.47;10.17;;;5.10;21.70;;;;;;5041751;28;20394;-83
2022/11/11 00:32:49;;;;;;;24.00;10.33;;;5.10;21.60;;;;;;5052749;28;20414;-83
2022/11/11 00:38:57;;;;;;;19.13;9.00;;;5.20;21.60;;;;;;5041884;28;20459;-83
2022/11/11 00:41:55;;;;;;;17.87;8.70;;;5.10;20.90;;;;;;5045176;28;20829;-83
2022/11/11 00:45:07;;;;;;;16.27;8.67;;;5.10;22.50;;;;;;5049854;28;20541;-82
2022/11/11 00:51:00;;;;;;;22.48;9.55;;;5.00;22.00;;;;;;5053161;28;20420;-83
2022/11/11 00:56:55;;;;;;;19.03;9.33;;;4.90;24.00;;;;;;5051273;28;20210;-82
2022/11/11 00:59:39;;;;;;;27.50;9.20;;;4.90;24.70;;;;;;5042765;28;20542;-82
2022/11/11 01:02:04;;;;;;;17.30;9.63;;;4.90;25.50;;;;;;5042750;28;20418;-82
2022/11/11 01:04:31;;;;;;;23.37;9.40;;;4.90;25.90;;;;;;5044736;28;20507;-82
2022/11/11 01:10:38;;;;;;;20.07;9.20;;;4.90;23.90;;;;;;5042936;28;20938;-83
2022/11/11 01:13:17;;;;;;;27.67;9.40;;;4.90;22.90;;;;;;5053387;28;20469;-82
2022/11/11 01:19:13;;;;;;;23.73;10.97;;;4.80;24.90;;;;;;5036668;28;20394;-83
2022/11/11 01:22:07;;;;;;;21.33;10.60;;;4.80;24.50;;;;;;5052733;28;20417;-82
2022/11/11 01:25:19;;;;;;;28.85;10.75;;;4.70;25.40;;;;;;5047187;28;20458;-83
2022/11/11 01:28:25;;;;;;;29.53;10.67;;;4.70;25.90;;;;;;5044879;28;20270;-83
2022/11/11 01:31:05;;;;;;;20.63;9.30;;;4.80;25.30;;;;;;5053437;28;20392;-83
2022/11/11 01:36:53;;;;;;;17.33;10.03;;;4.70;23.90;;;;;;5033988;28;20437;-83
2022/11/11 01:39:19;;;;;;;18.70;9.03;;;4.60;23.30;;;;;;5051971;28;20932;-83
2022/11/11 01:42:25;;;;;;;24.77;9.70;;;4.60;25.90;;;;;;5041754;28;20646;-82
2022/11/11 01:45:28;;;;;;;35.30;11.53;;;4.60;27.20;;;;;;5032242;28;20455;-82
2022/11/11 01:51:41;;;;;;;25.83;11.23;;;4.60;28.20;;;;;;5037419;28;20770;-82
2022/11/11 01:54:11;;;;;;;18.90;10.57;;;4.60;38.10;;;;;;5048181;28;21215;-82
2022/11/11 01:57:12;;;;;;;28.88;10.68;;;4.60;38.30;;;;;;5051870;28;20436;-82
2022/11/11 02:00:03;;;;;;;27.40;11.10;;;4.50;38.20;;;;;;5034117;28;20188;-82
2022/11/11 02:02:53;;;;;;;26.35;10.73;;;4.60;38.30;;;;;;5047092;28;20444;-82
2022/11/11 02:08:14;;;;;;;22.23;11.00;;;4.70;38.40;;;;;;5040314;28;20235;-82
2022/11/11 02:10:45;;;;;;;24.40;11.67;;;4.70;38.40;;;;;;5036065;28;20187;-82
2022/11/11 02:16:13;;;;;;;25.07;10.03;;;4.70;38.40;;;;;;5045283;28;21017;-82
2022/11/11 02:18:41;;;;;;;22.60;10.40;;;4.70;38.40;;;;;;5048469;28;20422;-82
2022/11/11 02:21:35;;;;;;;18.90;9.90;;;4.70;38.40;;;;;;5062093;28;20517;-82
2022/11/11 02:24:11;;;;;;;26.52;10.65;;;4.60;38.30;;;;;;5047605;28;20203;-82
2022/11/11 02:26:38;;;;;;;28.65;11.52;;;4.70;38.40;;;;;;5056303;28;20176;-82
2022/11/11 02:29:21;;;;;;;25.07;11.77;;;4.70;38.40;;;;;;5037453;28;20181;-82
2022/11/11 02:32:01;;;;;;;26.10;11.10;;;4.70;38.40;;;;;;5049834;28;20429;-82
2022/11/11 02:34:33;;;;;;;23.80;10.83;;;4.80;38.70;;;;;;5054936;28;20943;-82
2022/11/11 02:37:08;;;;;;;25.80;10.93;;;4.70;38.40;;;;;;5054862;28;20808;-82
2022/11/11 02:39:55;;;;;;;26.13;11.50;;;4.70;38.60;;;;;;5056531;28;20414;-82
2022/11/11 02:45:42;;;;;;;25.93;10.67;;;4.80;38.50;;;;;;5044809;28;20483;-82
2022/11/11 02:48:43;;;;;;;24.50;10.80;;;4.80;38.70;;;;;;5041819;28;20419;-82
2022/11/11 02:54:31;;;;;;;23.03;11.53;;;4.70;38.40;;;;;;5054836;28;20313;-82
2022/11/11 02:57:07;;;;;;;22.87;10.30;;;4.70;38.60;;;;;;5044908;28;20517;-82
2022/11/11 02:59:38;;;;;;;25.93;12.10;;;4.60;38.30;;;;;;5052030;28;20183;-82
2022/11/11 03:02:13;;;;;;;18.48;10.23;;;4.60;38.30;;;;;;5046821;28;20426;-82
2022/11/11 03:04:39;;;;;;;32.10;11.20;;;4.60;38.30;;;;;;5048628;28;20214;-82
2022/11/11 03:07:07;;;;;;;30.73;11.83;;;4.60;38.30;;;;;;5036154;28;20435;-83
2022/11/11 03:10:19;;;;;;;23.90;12.03;;;4.60;38.30;;;;;;5036884;28;20234;-83
2022/11/11 03:13:01;;;;;;;27.40;11.95;;;4.60;38.30;;;;;;5051870;28;20501;-82
2022/11/11 03:18:55;;;;;;;38.90;13.07;;;4.80;38.50;;;;;;5055340;28;20480;-82
2022/11/11 03:28:01;;;;;;;20.63;11.30;;;5.00;38.70;;;;;;5036681;28;20959;-83
2022/11/11 03:34:25;;;;;;;34.83;11.47;;;5.00;38.60;;;;;;5048981;28;20412;-83
2022/11/11 03:40:25;;;;;;;37.80;11.93;;;5.10;38.70;;;;;;5044074;28;20425;-82
2022/11/11 03:42:50;;;;;;;42.47;12.10;;;5.10;38.70;;;;;;5039373;28;20418;-82
2022/11/11 03:45:37;;;;;;;48.93;12.50;;;5.20;38.80;;;;;;5051365;28;20434;-83
2022/11/11 03:48:20;;;;;;;113.20;13.50;;;5.20;38.80;;;;;;5046308;28;20179;-83
2022/11/11 03:50:55;;;;;;;78.60;13.00;;;5.30;38.90;;;;;;5047077;28;20458;-83
2022/11/11 03:53:25;;;;;;;73.77;13.30;;;5.30;38.90;;;;;;5042943;28;20947;-83
2022/11/11 03:56:07;;;;;;;83.60;14.30;;;5.40;39.00;;;;;;5053410;28;20994;-83
2022/11/11 03:59:13;;;;;;;71.67;14.70;;;5.40;39.00;;;;;;5042080;28;20406;-84
2022/11/11 04:10:22;;;;;;;31.77;11.50;;;5.40;37.20;;;;;;5053417;28;20425;-83
2022/11/11 04:16:10;;;;;;;33.83;10.43;;;5.50;23.20;;;;;;5047756;28;20769;-83
2022/11/11 04:21:43;;;;;;;21.63;11.00;;;5.40;20.40;;;;;;4973973;28;20190;-83
2022/11/11 04:36:57;;;;;;;23.90;10.23;;;5.30;17.60;;;;;;4992744;28;23407;-82
2022/11/11 04:43:07;;;;;;;37.50;9.90;;;5.30;13.40;;;;;;4991636;28;20189;-82
2022/11/11 04:46:19;;;;;;;24.30;9.93;;;5.20;15.30;;;;;;4992588;28;20468;-83
2022/11/11 04:49:01;;;;;;;31.73;9.57;;;5.20;17.10;;;;;;4976131;28;20433;-83
2022/11/11 04:58:32;;;;;;;26.23;10.23;;;5.10;18.40;;;;;;5012954;28;20461;-84
2022/11/11 05:04:32;;;;;;;38.60;10.07;;;5.10;22.30;;;;;;5046886;28;20203;-80
2022/11/11 05:10:31;;;;;;;51.60;10.00;;;5.20;22.80;;;;;;5048296;28;20948;-80
2022/11/11 05:21:54;;;;;;;54.10;10.30;;;5.40;23.80;;;;;;5045243;28;20405;-85
2022/11/11 05:27:16;;;;;;;76.83;10.53;;;5.40;27.80;;;;;;5040384;28;20460;-85
2022/11/11 05:30:14;;;;;;;104.93;12.10;;;5.40;32.40;;;;;;5052606;28;20497;-85
2022/11/11 05:32:55;;;;;;;100.33;9.93;;;5.40;39.00;;;;;;5048540;28;20203;-81
2022/11/11 05:35:25;;;;;;;63.70;9.80;;;5.50;39.00;;;;;;5047137;28;20410;-80
2022/11/11 05:38:20;;;;;;;71.30;10.37;;;5.60;32.90;;;;;;5052980;28;20818;-80
2022/11/11 05:41:13;;;;;;;129.47;10.57;;;5.60;23.10;;;;;;5053068;28;20406;-80
2022/11/11 05:44:07;;;;;;;131.53;10.23;;;5.70;23.50;;;;;;5052711;28;20465;-86
2022/11/11 05:46:33;;;;;;;119.10;12.03;;;5.70;24.20;;;;;;5041699;28;20418;-73
2022/11/11 05:49:14;;;;;;;151.60;12.20;;;5.70;25.60;;;;;;5053263;28;20421;-74
2022/11/11 05:51:40;;;;;;;149.83;10.60;;;5.70;23.30;;;;;;5044819;28;20511;-73
2022/11/11 05:54:14;;;;;;;132.00;11.70;;;5.80;24.30;;;;;;5049971;28;20434;-74
2022/11/11 05:56:39;;;;;;;141.33;13.40;;;5.70;24.90;;;;;;5047760;28;20850;-73
2022/11/11 05:59:08;;;;;;;132.63;11.90;;;5.80;26.00;;;;;;5054490;28;20446;-77
2022/11/11 06:01:36;;;;;;;329.00;15.80;;;5.80;23.20;;;;;;5025151;28;20192;-74
2022/11/11 06:04:02;;;;;;;198.07;13.23;;;5.80;24.10;;;;;;5041478;28;20485;-74
2022/11/11 06:06:29;;;;;;;237.33;14.40;;;5.90;19.80;;;;;;5048832;28;20929;-74
2022/11/11 06:08:55;;;;;;;189.80;13.20;;;5.90;18.70;;;;;;5053080;28;20422;-74
2022/11/11 06:11:29;;;;;;;143.90;11.50;;;6.00;19.10;;;;;;5056775;28;20467;-74
2022/11/11 06:13:55;;;;;;;104.93;11.20;;;6.00;19.90;;;;;;5056647;28;20774;-74
2022/11/11 06:16:22;;;;;;;153.70;11.97;;;6.00;21.40;;;;;;5057007;28;20454;-74
2022/11/11 06:18:49;;;;;;;119.53;11.97;;;6.00;23.00;;;;;;5051388;28;20783;-73
2022/11/11 06:21:26;;;;;;;170.63;11.77;;;6.00;23.80;;;;;;5041076;28;20790;-74
2022/11/11 06:23:52;;;;;;;142.13;11.97;;;6.10;21.00;;;;;;5039594;28;20525;-74
2022/11/11 06:26:18;;;;;;;106.57;10.80;;;6.10;15.50;;;;;;5050642;28;20522;-74
2022/11/11 06:28:52;;;;;;;161.33;12.40;;;6.10;13.80;;;;;;5053369;28;20429;-76
2022/11/11 06:31:27;;;;;;;135.40;12.43;;;6.10;15.60;;;;;;5047744;28;20683;-73
2022/11/11 06:33:53;;;;;;;179.53;13.70;;;6.20;13.40;;;;;;5048840;28;20430;-74
2022/11/11 06:36:20;;;;;;;171.90;12.27;;;6.20;11.60;;;;;;5056190;28;20409;-74
2022/11/11 06:38:46;;;;;;;115.07;11.93;;;6.10;12.40;;;;;;5049319;28;20430;-74
2022/11/11 06:41:14;;;;;;;126.23;11.70;;;6.10;15.90;;;;;;5050785;28;20410;-74
2022/11/11 06:43:41;;;;;;;164.57;12.13;;;6.10;17.20;;;;;;5048974;28;20461;-74
2022/11/11 06:46:10;;;;;;;129.93;11.93;;;6.10;19.70;;;;;;5036791;28;20498;-74
2022/11/11 06:48:41;;;;;;;121.33;12.03;;;6.10;22.40;;;;;;5046930;28;20516;-71
2022/11/11 06:51:08;;;;;;;94.23;11.03;;;6.20;22.70;;;;;;5054741;28;20422;-71
2022/11/11 06:53:35;;;;;;;118.93;11.33;;;6.30;21.70;;;;;;5054161;28;20732;-69
2022/11/11 06:56:01;;;;;;;101.30;10.70;;;6.30;18.80;;;;;;5052086;28;20514;-69
2022/11/11 06:58:27;;;;;;;109.87;11.47;;;6.30;19.60;;;;;;5048717;28;21020;-69
2022/11/11 07:00:52;;;;;;;116.83;12.10;;;6.40;19.00;;;;;;5046190;28;20436;-71
2022/11/11 07:03:20;;;;;;;104.03;10.80;;;6.40;18.30;;;;;;5041677;28;20203;-71
2022/11/11 07:05:46;;;;;;;149.03;11.50;;;6.40;18.10;;;;;;5045320;28;20271;-71
2022/11/11 07:08:31;;;;;;;69.60;9.63;;;6.50;15.50;;;;;;5048855;28;20427;-80
2022/11/11 07:10:57;;;;;;;159.10;12.63;;;6.60;14.00;;;;;;5047113;28;20812;-71
2022/11/11 07:13:23;;;;;;;148.70;10.93;;;6.60;12.80;;;;;;5052221;28;20510;-71
2022/11/11 07:15:48;;;;;;;108.27;11.10;;;6.60;12.70;;;;;;5052414;28;20214;-70
2022/11/11 07:18:14;;;;;;;64.13;10.30;;;6.60;15.50;;;;;;5057677;28;20431;-70
2022/11/11 07:20:40;;;;;;;84.63;10.30;;;6.60;20.70;;;;;;5047731;28;20176;-70
2022/11/11 07:23:06;;;;;;;135.50;12.60;;;6.70;19.60;;;;;;5037871;28;20179;-70
2022/11/11 07:25:32;;;;;;;90.87;10.67;;;6.80;13.50;;;;;;5051076;28;22065;-70
2022/11/11 07:27:59;;;;;;;115.13;11.30;;;6.90;8.90;;;;;;5048735;28;20504;-72
2022/11/11 07:30:25;;;;;;;55.40;9.83;;;6.90;8.60;;;;;;5055205;28;20415;-72
2022/11/11 07:32:51;;;;;;;127.23;11.80;;;6.90;9.80;;;;;;5054869;28;20406;-69
2022/11/11 07:35:18;;;;;;;115.30;11.20;;;6.90;13.90;;;;;;5054946;28;20454;-69
2022/11/11 07:37:45;;;;;;;77.80;10.40;;;7.00;10.00;;;;;;5054699;28;20410;-69
2022/11/11 07:40:13;;;;;;;91.37;9.67;;;7.00;8.50;;;;;;5054295;28;20417;-70
2022/11/11 07:42:40;;;;;;;81.87;10.87;;;7.10;7.50;;;;;;5053071;28;20434;-69
2022/11/11 07:45:07;;;;;;;75.83;10.30;;;7.20;3.40;;;;;;5054433;28;20564;-70
2022/11/11 07:47:33;;;;;;;115.27;10.37;;;7.20;5.10;;;;;;5054402;28;20414;-70
2022/11/11 07:50:03;;;;;;;86.60;11.10;;;7.30;4.20;;;;;;5052103;28;20449;-70
2022/11/11 07:52:29;;;;;;;84.77;9.30;;;7.30;5.30;;;;;;5053841;28;20426;-70
2022/11/11 07:54:55;;;;;;;64.87;9.90;;;7.30;4.40;;;;;;5048701;28;20438;-70
2022/11/11 07:57:21;;;;;;;86.13;10.50;;;7.40;4.90;;;;;;5041303;28;20687;-69
2022/11/11 07:59:47;;;;;;;43.63;9.70;;;7.50;4.50;;;;;;5039569;28;20434;-70
2022/11/11 08:02:13;;;;;;;20.60;9.20;;;7.50;6.40;;;;;;5053744;28;20429;-70
2022/11/11 08:04:39;;;;;;;101.03;10.90;;;7.60;4.50;;;;;;5046133;28;20207;-70
2022/11/11 08:07:05;;;;;;;74.77;10.20;;;7.70;1.90;;;;;;5035768;28;20438;-70
2022/11/11 08:09:30;;;;;;;37.43;9.23;;;7.80;1.00;;;;;;5047463;28;20635;-70
2022/11/11 08:14:41;;;;;;;42.00;9.97;;;8.00;1.00;;;;;;5051744;28;20472;-70
2022/11/11 08:17:13;;;;;;;36.97;8.93;;;8.10;1.00;;;;;;5050895;28;20831;-83
2022/11/11 08:23:37;;;;;;;51.03;9.80;;;8.30;1.00;;;;;;5034652;28;20542;-83
2022/11/11 08:26:14;;;;;;;44.97;8.97;;;8.40;1.00;;;;;;5038022;28;20518;-83
2022/11/11 08:28:52;;;;;;;31.80;8.87;;;8.60;1.00;;;;;;5048066;28;20421;-82
2022/11/11 08:31:19;;;;;;;35.37;9.60;;;8.70;1.00;;;;;;5047806;28;20425;-82
2022/11/11 08:34:13;;;;;;;19.03;8.57;;;8.70;1.00;;;;;;5039463;28;20426;-82
2022/11/11 08:36:43;;;;;;;20.50;9.07;;;8.90;1.00;;;;;;5036515;28;20952;-82
2022/11/11 08:39:20;;;;;;;18.50;7.57;;;9.00;1.00;;;;;;5051843;28;20496;-82
2022/11/11 08:41:55;;;;;;;25.00;8.80;;;9.20;1.00;;;;;;5052884;28;20417;-83
2022/11/11 08:44:50;;;;;;;23.40;8.80;;;9.20;1.00;;;;;;5053136;28;20880;-83
2022/11/11 08:47:31;;;;;;;18.07;8.17;;;9.10;1.00;;;;;;5040762;28;20506;-84
2022/11/11 08:50:13;;;;;;;24.23;8.07;;;9.20;1.00;;;;;;5049311;28;20517;-83
2022/11/11 08:53:08;;;;;;;28.37;8.23;;;9.30;1.00;;;;;;5040958;28;20471;-83
2022/11/11 08:59:01;;;;;;;24.40;9.20;;;9.50;1.00;;;;;;5051041;28;20428;-83
2022/11/11 09:01:27;;;;;;;31.27;11.17;;;9.40;1.00;;;;;;5051547;28;20438;-83
2022/11/11 09:04:07;;;;;;;28.73;9.87;;;9.30;1.00;;;;;;5046439;28;20462;-82
2022/11/11 09:13:17;;;;;;;33.07;9.93;;;9.40;1.00;;;;;;5040945;28;20421;-80
2022/11/11 09:15:43;;;;;;;32.20;9.77;;;9.50;1.00;;;;;;5041612;28;20502;-80
2022/11/11 09:18:09;;;;;;;28.70;10.03;;;9.50;1.00;;;;;;5046808;28;20191;-79
2022/11/11 09:20:36;;;;;;;25.47;10.50;;;9.60;1.00;;;;;;5037401;28;20439;-72
2022/11/11 09:23:01;;;;;;;23.27;10.40;;;9.40;1.00;;;;;;5043421;28;20187;-71
2022/11/11 09:25:27;;;;;;;33.83;10.17;;;9.20;1.00;;;;;;5045742;28;20457;-71
2022/11/11 09:27:58;;;;;;;23.83;10.33;;;9.30;1.00;;;;;;5052359;28;20533;-72
2022/11/11 09:30:57;;;;;;;36.23;11.57;;;9.30;1.00;;;;;;5041743;28;20183;-85
2022/11/11 09:33:26;;;;;;;32.37;10.27;;;9.50;1.00;;;;;;5052096;28;20421;-81
2022/11/11 09:35:57;;;;;;;36.83;10.97;;;9.40;1.00;;;;;;5055843;28;20435;-83
2022/11/11 09:38:32;;;;;;;39.97;10.97;;;9.30;1.00;;;;;;5058873;28;20512;-81
2022/11/11 09:41:25;;;;;;;22.80;10.30;;;9.30;1.00;;;;;;5048933;28;20425;-82
2022/11/11 09:44:02;;;;;;;29.03;12.73;;;9.40;1.00;;;;;;5054044;28;20454;-79
2022/11/11 09:49:58;;;;;;;39.70;12.10;;;9.20;1.00;;;;;;5057501;28;20417;-82
2022/11/11 09:52:31;;;;;;;22.57;10.30;;;9.20;1.00;;;;;;5057056;28;20756;-74
2022/11/11 09:55:03;;;;;;;23.30;11.30;;;9.40;1.00;;;;;;5044268;28;20453;-72
2022/11/11 09:57:52;;;;;;;22.23;11.20;;;9.50;1.00;;;;;;5057011;28;20995;-73
2022/11/11 10:00:23;;;;;;;26.30;11.63;;;9.60;1.00;;;;;;5050846;28;20433;-70
2022/11/11 10:03:08;;;;;;;25.27;11.33;;;9.70;1.00;;;;;;5049166;28;20521;-78
2022/11/11 10:05:50;;;;;;;24.93;11.93;;;9.70;1.00;;;;;;5056685;28;20441;-78
2022/11/11 10:08:29;;;;;;;23.53;11.90;;;9.90;1.00;;;;;;5056476;28;20425;-77
2022/11/11 10:11:00;;;;;;;28.70;12.20;;;9.90;1.00;;;;;;5051073;28;20945;-77
2022/11/11 10:13:35;;;;;;;22.60;12.23;;;10.00;1.00;;;;;;5054934;28;20409;-77
2022/11/11 10:16:28;;;;;;;27.43;12.23;;;10.00;1.00;;;;;;5058016;28;20513;-77
2022/11/11 10:19:22;;;;;;;26.93;11.90;;;10.20;1.00;;;;;;5052644;28;21233;-78
2022/11/11 10:22:08;;;;;;;26.20;12.90;;;10.10;1.00;;;;;;5048302;28;20460;-77
2022/11/11 10:24:48;;;;;;;24.53;12.90;;;10.20;1.00;;;;;;5049120;28;20447;-77
2022/11/11 10:27:20;;;;;;;30.23;14.00;;;10.30;1.00;;;;;;5054281;28;20425;-80
2022/11/11 10:29:50;;;;;;;23.97;12.23;;;10.40;1.00;;;;;;5048323;28;20479;-79
2022/11/11 10:32:25;;;;;;;25.00;12.53;;;10.50;1.00;;;;;;5046183;28;20774;-75
2022/11/11 10:34:52;;;;;;;22.63;11.40;;;10.50;1.00;;;;;;5055328;28;21023;-72
2022/11/11 10:37:40;;;;;;;23.77;10.70;;;10.40;1.00;;;;;;5052457;28;20830;-72
2022/11/11 10:40:21;;;;;;;25.77;13.47;;;10.30;1.00;;;;;;5056214;28;20421;-72
2022/11/11 10:42:47;;;;;;;19.80;11.17;;;10.30;1.00;;;;;;5055649;28;20437;-73
2022/11/11 10:45:48;;;;;;;27.63;13.03;;;10.30;1.00;;;;;;5050362;28;20446;-73
2022/11/11 10:48:20;;;;;;;23.90;12.20;;;10.30;1.00;;;;;;5050716;28;20437;-73
2022/11/11 10:50:53;;;;;;;24.47;13.00;;;10.20;1.00;;;;;;5061321;28;20411;-73
2022/11/11 10:53:42;;;;;;;25.00;13.20;;;10.30;1.00;;;;;;5048083;28;20430;-72
2022/11/11 10:56:17;;;;;;;27.17;13.43;;;10.50;1.00;;;;;;5043268;28;20438;-72
2022/11/11 10:58:54;;;;;;;27.57;13.23;;;10.60;1.00;;;;;;5045070;28;20908;-72
2022/11/11 11:01:34;;;;;;;29.20;13.47;;;10.80;1.00;;;;;;5054991;28;20425;-72
2022/11/11 11:04:33;;;;;;;29.87;13.70;;;10.90;1.00;;;;;;5045834;28;20470;-72
2022/11/11 11:07:06;;;;;;;26.43;12.70;;;10.80;1.00;;;;;;5006388;28;20444;-71
2022/11/11 11:09:55;;;;;;;26.93;12.67;;;10.80;1.00;;;;;;5011559;28;20418;-72
2022/11/11 11:13:01;;;;;;;35.07;13.93;;;10.90;1.00;;;;;;5000305;28;20540;-73
2022/11/11 11:15:29;;;;;;;24.57;13.60;;;10.90;1.00;;;;;;4944784;29;20943;-73
2022/11/11 11:18:07;;;;;;;28.13;13.83;;;10.80;1.00;;;;;;4955089;29;20950;-71
2022/11/11 11:20:33;;;;;;;27.07;14.00;;;10.90;1.00;;;;;;4954603;29;20430;-72
2022/11/11 11:23:08;;;;;;;29.07;15.37;;;11.00;1.00;;;;;;4954613;29;20501;-72
2022/11/11 11:25:33;;;;;;;26.33;14.47;;;11.00;1.00;;;;;;4953002;29;20552;-71
2022/11/11 11:28:11;;;;;;;27.50;14.47;;;10.90;1.00;;;;;;4954307;28;20541;-71
2022/11/11 11:30:37;;;;;;;29.80;14.10;;;10.90;1.00;;;;;;4954588;29;20253;-71
2022/11/11 11:33:08;;;;;;;28.40;13.87;;;10.90;1.00;;;;;;4955052;29;20418;-71
2022/11/11 11:35:38;;;;;;;29.10;14.13;;;10.90;1.00;;;;;;4953112;29;20561;-71
2022/11/11 11:38:07;;;;;;;27.10;14.00;;;11.00;1.00;;;;;;4953221;29;20431;-71
2022/11/11 11:40:50;;;;;;;30.37;14.40;;;11.10;1.00;;;;;;4954233;29;20438;-71
2022/11/11 11:43:35;;;;;;;34.40;15.30;;;11.20;1.00;;;;;;4960555;28;20428;-72
2022/11/11 11:46:33;;;;;;;30.83;15.17;;;11.20;1.00;;;;;;4992031;28;20433;-72
2022/11/11 11:49:18;;;;;;;26.10;13.63;;;11.30;1.00;;;;;;4954050;29;20469;-72
2022/11/11 11:52:03;;;;;;;32.47;15.00;;;11.20;1.00;;;;;;4958333;28;20476;-71
2022/11/11 11:54:54;;;;;;;25.77;13.53;;;11.30;1.00;;;;;;4989868;28;20496;-72
2022/11/11 11:57:40;;;;;;;29.43;14.47;;;11.20;1.00;;;;;;4986325;28;20503;-72
2022/11/11 12:00:27;;;;;;;28.50;12.53;;;11.20;1.00;;;;;;4992604;28;20953;-72
2022/11/11 12:03:30;;;;;;;22.70;12.03;;;11.10;1.00;;;;;;4993339;28;20424;-72
2022/11/11 12:06:37;;;;;;;29.03;13.10;;;11.00;1.00;;;;;;4990102;28;20909;-72
2022/11/11 12:09:30;;;;;;;20.97;11.00;;;11.10;1.00;;;;;;4921612;29;21185;-72
2022/11/11 12:12:13;;;;;;;21.27;11.97;;;11.20;1.00;;;;;;4904341;29;20428;-71
2022/11/11 12:15:13;;;;;;;22.27;11.57;;;11.10;1.00;;;;;;4912122;29;20463;-72
2022/11/11 12:18:15;;;;;;;23.00;10.50;;;11.10;1.00;;;;;;4905753;29;20438;-72
2022/11/11 12:21:11;;;;;;;26.67;12.50;;;11.20;1.00;;;;;;4909217;29;20515;-72
2022/11/11 12:23:45;;;;;;;33.57;13.73;;;11.20;1.00;;;;;;4913086;29;20857;-72
2022/11/11 12:26:23;;;;;;;32.23;14.43;;;11.30;1.00;;;;;;4939729;28;20785;-71
2022/11/11 12:29:11;;;;;;;30.13;14.60;;;11.30;1.00;;;;;;4973232;28;20424;-72
2022/11/11 12:31:54;;;;;;;34.00;16.20;;;11.50;1.00;;;;;;4970062;28;20929;-71
2022/11/11 12:34:25;;;;;;;26.53;14.73;;;11.60;1.00;;;;;;4970878;28;20438;-72
2022/11/11 12:37:06;;;;;;;36.50;16.27;;;11.70;1.00;;;;;;4956931;28;20475;-72
2022/11/11 12:39:59;;;;;;;33.60;14.77;;;11.70;1.00;;;;;;5000430;28;20435;-72
2022/11/11 12:42:43;;;;;;;34.57;16.03;;;11.80;1.00;;;;;;5049565;28;20426;-71
2022/11/11 12:45:32;;;;;;;28.63;14.23;;;11.90;1.00;;;;;;5051289;28;20587;-72
2022/11/11 12:48:35;;;;;;;28.83;14.83;;;11.90;1.00;;;;;;4992081;28;20421;-71
2022/11/11 12:51:18;;;;;;;31.27;14.60;;;11.70;1.00;;;;;;4981799;28;20438;-72
2022/11/11 12:54:10;;;;;;;29.77;14.80;;;11.60;1.00;;;;;;4981196;28;20437;-72
2022/11/11 12:56:58;;;;;;;28.07;14.47;;;11.80;1.00;;;;;;4972451;28;20956;-72
2022/11/11 12:59:51;;;;;;;28.30;14.80;;;11.90;1.00;;;;;;4990190;28;20444;-71
2022/11/11 13:02:45;;;;;;;31.23;14.53;;;11.90;1.00;;;;;;4977536;28;20515;-73
2022/11/11 13:05:17;;;;;;;32.33;15.77;;;11.90;1.00;;;;;;4979235;28;20476;-72
2022/11/11 13:08:12;;;;;;;30.17;16.10;;;11.90;1.00;;;;;;4990093;28;20568;-72
2022/11/11 13:10:47;;;;;;;28.80;15.10;;;11.90;1.00;;;;;;4990078;28;20421;-72
2022/11/11 13:13:33;;;;;;;34.93;14.90;;;11.90;1.00;;;;;;4987222;28;20435;-72
2022/11/11 13:16:00;;;;;;;31.27;15.40;;;11.90;1.00;;;;;;4982314;28;20426;-72
2022/11/11 13:18:45;;;;;;;39.03;15.90;;;11.90;1.00;;;;;;4990051;28;20565;-73
2022/11/11 13:21:20;;;;;;;32.30;15.60;;;11.90;1.00;;;;;;4985999;28;20635;-73
2022/11/11 13:23:46;;;;;;;31.07;15.67;;;12.00;1.00;;;;;;4991159;28;20814;-72
2022/11/11 13:26:25;;;;;;;29.00;15.13;;;12.00;1.00;;;;;;5051500;28;20434;-73
2022/11/11 13:29:00;;;;;;;38.13;15.97;;;12.00;1.00;;;;;;5032221;28;20195;-71
2022/11/11 13:31:34;;;;;;;26.80;14.67;;;12.00;1.00;;;;;;5045917;28;20421;-72
2022/11/11 13:34:08;;;;;;;27.37;15.20;;;11.90;1.00;;;;;;5039867;28;20422;-72
2022/11/11 13:36:45;;;;;;;33.23;14.37;;;12.00;1.00;;;;;;5043821;28;20528;-71
2022/11/11 13:39:26;;;;;;;32.47;14.90;;;11.90;1.00;;;;;;5047588;28;20414;-72
2022/11/11 13:41:54;;;;;;;30.83;15.27;;;11.90;1.00;;;;;;5037390;28;20450;-72
2022/11/11 13:44:34;;;;;;;31.20;15.57;;;11.90;1.00;;;;;;5044343;28;20473;-72
2022/11/11 13:47:16;;;;;;;33.30;15.67;;;11.90;1.00;;;;;;5033156;28;20414;-72
2022/11/11 13:49:56;;;;;;;33.73;13.83;;;11.90;1.00;;;;;;5042928;28;20442;-72
2022/11/11 13:52:35;;;;;;;33.47;16.70;;;11.90;1.00;;;;;;5043099;28;20771;-73
2022/11/11 13:55:05;;;;;;;32.00;15.37;;;11.70;1.00;;;;;;5046646;28;20461;-73
2022/11/11 13:57:33;;;;;;;39.63;17.00;;;11.40;1.00;;;;;;5042683;28;20535;-72
2022/11/11 14:00:27;;;;;;;34.07;15.83;;;11.40;1.00;;;;;;5052952;28;20425;-71
2022/11/11 14:03:20;;;;;;;33.07;15.73;;;11.50;1.00;;;;;;5049925;28;20433;-73
2022/11/11 14:05:46;;;;;;;30.00;14.53;;;11.50;1.00;;;;;;5047405;28;20442;-79
2022/11/11 14:08:44;;;;;;;29.53;15.97;;;11.50;1.00;;;;;;5037823;28;20446;-79
2022/11/11 14:11:25;;;;;;;25.00;13.60;;;11.50;1.00;;;;;;5009932;28;20424;-73
2022/11/11 14:14:31;;;;;;;28.63;13.50;;;11.30;1.00;;;;;;5000702;28;20439;-73
2022/11/11 14:17:10;;;;;;;28.23;13.40;;;11.30;1.00;;;;;;5008210;28;20436;-73
2022/11/11 14:19:36;;;;;;;36.03;13.50;;;11.20;1.00;;;;;;5014797;28;20531;-73
2022/11/11 14:22:28;;;;;;;32.77;15.17;;;11.20;1.00;;;;;;5013686;28;20979;-72
2022/11/11 14:24:54;;;;;;;33.30;15.20;;;11.30;1.00;;;;;;5013832;28;20300;-73
2022/11/11 14:27:29;;;;;;;31.97;16.43;;;11.30;1.00;;;;;;5013715;28;20526;-80
2022/11/11 14:30:27;;;;;;;34.00;16.20;;;11.20;1.00;;;;;;5014306;28;20168;-82
2022/11/11 14:33:06;;;;;;;35.20;15.80;;;10.90;1.00;;;;;;5013342;28;20428;-81
2022/11/11 14:35:43;;;;;;;41.10;16.60;;;10.90;1.00;;;;;;5012728;28;20814;-81
2022/11/11 14:38:27;;;;;;;31.50;15.60;;;10.90;1.00;;;;;;4994985;28;20423;-81
2022/11/11 14:40:53;;;;;;;35.00;16.10;;;10.90;1.00;;;;;;5011084;28;20423;-81
2022/11/11 14:43:39;;;;;;;35.10;16.37;;;10.90;1.00;;;;;;5007871;28;20450;-81
2022/11/11 14:46:11;;;;;;;33.47;15.70;;;10.90;1.00;;;;;;5013824;28;20184;-81
2022/11/11 14:48:55;;;;;;;30.87;16.13;;;10.70;1.00;;;;;;5045085;28;20492;-81
2022/11/11 14:51:57;;;;;;;46.33;17.20;;;10.70;1.00;;;;;;5047383;28;20418;-81
2022/11/11 14:55:03;;;;;;;37.70;17.43;;;10.60;1.00;;;;;;5045087;28;20488;-83
2022/11/11 14:57:38;;;;;;;37.83;17.30;;;10.60;1.00;;;;;;5018514;28;20490;-81
2022/11/11 15:00:12;;;;;;;41.23;16.73;;;10.50;1.00;;;;;;5014066;28;20449;-83
2022/11/11 15:03:00;;;;;;;36.83;16.30;;;10.30;1.00;;;;;;5005742;28;20415;-84
2022/11/11 15:05:48;;;;;;;37.33;17.60;;;10.40;1.00;;;;;;4995569;28;20472;-81
2022/11/11 15:08:38;;;;;;;43.20;16.80;;;10.20;1.00;;;;;;4995211;28;20436;-82
2022/11/11 15:11:31;;;;;;;40.23;16.93;;;10.20;1.00;;;;;;5012690;28;20510;-83
2022/11/11 15:14:24;;;;;;;44.43;18.60;;;10.30;1.00;;;;;;5011922;28;20442;-82
2022/11/11 15:17:23;;;;;;;48.97;20.27;;;10.10;1.00;;;;;;5013780;28;20486;-76
2022/11/11 15:20:10;;;;;;;44.40;20.03;;;10.10;1.00;;;;;;5013188;28;20444;-74
2022/11/11 15:26:33;;;;;;;52.80;21.77;;;10.10;1.00;;;;;;5004748;28;20426;-78
2022/11/11 15:29:24;;;;;;;59.13;24.23;;;10.10;1.00;;;;;;5004894;28;20425;-78
2022/11/11 15:31:59;;;;;;;53.00;23.43;;;10.10;1.00;;;;;;5013611;28;20586;-79
2022/11/11 15:34:51;;;;;;;60.40;24.23;;;10.00;1.00;;;;;;5055645;28;20410;-82
2022/11/11 15:37:23;;;;;;;59.10;24.47;;;10.00;1.00;;;;;;5046359;28;20748;-77
2022/11/11 15:39:52;;;;;;;65.03;25.60;;;10.20;1.00;;;;;;5050747;28;20954;-79
2022/11/11 15:42:39;;;;;;;68.13;25.80;;;10.10;1.00;;;;;;5048921;28;20448;-81
2022/11/11 15:45:30;;;;;;;70.40;26.93;;;10.10;1.00;;;;;;5054944;28;20453;-79
2022/11/11 15:47:56;;;;;;;62.73;24.77;;;10.00;1.00;;;;;;5052373;28;20462;-79
2022/11/11 15:53:44;;;;;;;62.53;24.90;;;10.00;1.00;;;;;;5036617;28;20765;-81
2022/11/11 15:56:32;;;;;;;62.73;26.33;;;9.80;1.00;;;;;;5041563;28;20477;-79
2022/11/11 15:59:21;;;;;;;65.30;24.93;;;9.80;1.00;;;;;;5039080;28;20643;-78
2022/11/11 16:01:57;;;;;;;60.17;24.63;;;9.80;1.00;;;;;;5040974;28;20434;-78
2022/11/11 16:04:33;;;;;;;65.53;25.80;;;9.70;1.00;;;;;;5034624;28;20454;-79